sensor_id;sensor_type;location;lat;lon;timestamp;temperature;humidity
42913;DHT22;50720;54.324;18.558;2023-03-05T00:00:30;-1.40;99.90
42913;DHT22;50720;54.324;18.558;2023-03-05T00:03:21;-1.40;99.90
42913;DHT22;50720;54.324;18.558;2023-03-05T00:05:55;-1.40;99.90
42913;DHT22;50720;54.324;18.558;2023-03-05T00:08:26;-1.40;99.90
42913;DHT22;50720;54.324;18.558;2023-03-05T00:10:56;-1.40;99.90
42913;DHT22;50720;54.324;18.558;2023-03-05T00:13:26;-1.50;99.90
42913;DHT22;50720;54.324;18.558;2023-03-05T00:15:56;-1.50;99.90
42913;DHT22;50720;54.324;18.558;2023-03-05T00:18:28;-1.40;99.90
42913;DHT22;50720;54.324;18.558;2023-03-05T00:20:58;-1.40;99.90
42913;DHT22;50720;54.324;18.558;2023-03-05T00:23:28;-1.40;99.90
42913;DHT22;50720;54.324;18.558;2023-03-05T00:26:00;-1.40;99.90
42913;DHT22;50720;54.324;18.558;2023-03-05T00:28:32;-1.30;99.90
42913;DHT22;50720;54.324;18.558;2023-03-05T00:31:02;-1.30;99.90
42913;DHT22;50720;54.324;18.558;2023-03-05T00:33:34;-1.30;99.90
42913;DHT22;50720;54.324;18.558;2023-03-05T00:36:05;-1.30;99.90
42913;DHT22;50720;54.324;18.558;2023-03-05T00:38:35;-1.30;99.90
42913;DHT22;50720;54.324;18.558;2023-03-05T00:41:05;-1.30;99.90
42913;DHT22;50720;54.324;18.558;2023-03-05T00:43:34;-1.20;99.90
42913;DHT22;50720;54.324;18.558;2023-03-05T00:46:04;-1.20;99.90
42913;DHT22;50720;54.324;18.558;2023-03-05T00:48:35;-1.20;99.90
42913;DHT22;50720;54.324;18.558;2023-03-05T00:51:06;-1.10;99.90
42913;DHT22;50720;54.324;18.558;2023-03-05T00:53:35;-1.10;99.90
42913;DHT22;50720;54.324;18.558;2023-03-05T00:56:06;-1.00;99.90
42913;DHT22;50720;54.324;18.558;2023-03-05T00:58:36;-1.00;99.90
42913;DHT22;50720;54.324;18.558;2023-03-05T01:01:06;-1.00;99.90
42913;DHT22;50720;54.324;18.558;2023-03-05T01:03:37;-0.90;99.90
42913;DHT22;50720;54.324;18.558;2023-03-05T01:06:09;-0.90;99.90
42913;DHT22;50720;54.324;18.558;2023-03-05T01:08:38;-0.90;99.90
42913;DHT22;50720;54.324;18.558;2023-03-05T01:11:09;-0.80;99.90
42913;DHT22;50720;54.324;18.558;2023-03-05T01:13:39;-0.80;99.90
42913;DHT22;50720;54.324;18.558;2023-03-05T01:16:09;-0.80;99.90
42913;DHT22;50720;54.324;18.558;2023-03-05T01:18:40;-0.70;99.90
42913;DHT22;50720;54.324;18.558;2023-03-05T01:21:10;-0.70;99.90
42913;DHT22;50720;54.324;18.558;2023-03-05T01:23:39;-0.70;99.90
42913;DHT22;50720;54.324;18.558;2023-03-05T01:26:09;-0.70;99.90
42913;DHT22;50720;54.324;18.558;2023-03-05T01:28:39;-0.80;99.90
42913;DHT22;50720;54.324;18.558;2023-03-05T01:31:09;-0.80;99.90
42913;DHT22;50720;54.324;18.558;2023-03-05T01:33:40;-0.90;99.90
42913;DHT22;50720;54.324;18.558;2023-03-05T01:36:11;-0.90;99.90
42913;DHT22;50720;54.324;18.558;2023-03-05T01:38:43;-1.00;99.90
42913;DHT22;50720;54.324;18.558;2023-03-05T01:41:14;-1.00;99.90
42913;DHT22;50720;54.324;18.558;2023-03-05T01:43:44;-1.00;99.90
42913;DHT22;50720;54.324;18.558;2023-03-05T01:46:22;-1.00;99.90
42913;DHT22;50720;54.324;18.558;2023-03-05T01:49:00;-1.00;99.90
42913;DHT22;50720;54.324;18.558;2023-03-05T01:51:34;-1.10;99.90
42913;DHT22;50720;54.324;18.558;2023-03-05T01:54:06;-1.20;99.90
42913;DHT22;50720;54.324;18.558;2023-03-05T01:56:38;-1.20;99.90
42913;DHT22;50720;54.324;18.558;2023-03-05T01:59:08;-1.20;99.90
42913;DHT22;50720;54.324;18.558;2023-03-05T02:01:42;-1.30;99.90
42913;DHT22;50720;54.324;18.558;2023-03-05T02:04:16;-1.30;99.90
42913;DHT22;50720;54.324;18.558;2023-03-05T02:06:47;-1.30;99.90
42913;DHT22;50720;54.324;18.558;2023-03-05T02:09:17;-1.30;99.90
42913;DHT22;50720;54.324;18.558;2023-03-05T02:11:51;-1.30;99.90
42913;DHT22;50720;54.324;18.558;2023-03-05T02:14:21;-1.30;99.90
42913;DHT22;50720;54.324;18.558;2023-03-05T02:16:51;-1.30;99.90
42913;DHT22;50720;54.324;18.558;2023-03-05T02:19:22;-1.30;99.90
42913;DHT22;50720;54.324;18.558;2023-03-05T02:21:54;-1.30;99.90
42913;DHT22;50720;54.324;18.558;2023-03-05T02:24:34;-1.40;99.90
42913;DHT22;50720;54.324;18.558;2023-03-05T02:27:05;-1.30;99.90
42913;DHT22;50720;54.324;18.558;2023-03-05T02:29:37;-1.30;99.90
42913;DHT22;50720;54.324;18.558;2023-03-05T02:32:10;-1.40;99.90
42913;DHT22;50720;54.324;18.558;2023-03-05T02:34:40;-1.40;99.90
42913;DHT22;50720;54.324;18.558;2023-03-05T02:37:12;-1.40;99.90
42913;DHT22;50720;54.324;18.558;2023-03-05T02:39:41;-1.40;99.90
42913;DHT22;50720;54.324;18.558;2023-03-05T02:42:11;-1.40;99.90
42913;DHT22;50720;54.324;18.558;2023-03-05T02:44:40;-1.40;99.90
42913;DHT22;50720;54.324;18.558;2023-03-05T02:47:10;-1.40;99.90
42913;DHT22;50720;54.324;18.558;2023-03-05T02:49:41;-1.40;99.90
42913;DHT22;50720;54.324;18.558;2023-03-05T02:52:12;-1.40;99.90
42913;DHT22;50720;54.324;18.558;2023-03-05T02:54:41;-1.40;99.90
42913;DHT22;50720;54.324;18.558;2023-03-05T02:57:11;-1.40;99.90
42913;DHT22;50720;54.324;18.558;2023-03-05T02:59:41;-1.40;99.90
42913;DHT22;50720;54.324;18.558;2023-03-05T03:02:11;-1.40;99.90
42913;DHT22;50720;54.324;18.558;2023-03-05T03:04:41;-1.40;99.90
42913;DHT22;50720;54.324;18.558;2023-03-05T03:07:14;-1.40;99.90
42913;DHT22;50720;54.324;18.558;2023-03-05T03:09:43;-1.40;99.90
42913;DHT22;50720;54.324;18.558;2023-03-05T03:12:13;-1.40;99.90
42913;DHT22;50720;54.324;18.558;2023-03-05T03:14:43;-1.40;99.90
42913;DHT22;50720;54.324;18.558;2023-03-05T03:17:14;-1.30;99.90
42913;DHT22;50720;54.324;18.558;2023-03-05T03:19:45;-1.30;99.90
42913;DHT22;50720;54.324;18.558;2023-03-05T03:22:16;-1.30;99.90
42913;DHT22;50720;54.324;18.558;2023-03-05T03:24:46;-1.30;99.90
42913;DHT22;50720;54.324;18.558;2023-03-05T03:27:16;-1.20;99.90
42913;DHT22;50720;54.324;18.558;2023-03-05T03:29:46;-1.20;99.90
42913;DHT22;50720;54.324;18.558;2023-03-05T03:32:15;-1.20;99.90
42913;DHT22;50720;54.324;18.558;2023-03-05T03:34:45;-1.20;99.90
42913;DHT22;50720;54.324;18.558;2023-03-05T03:37:16;-1.20;99.90
42913;DHT22;50720;54.324;18.558;2023-03-05T03:39:46;-1.20;99.90
42913;DHT22;50720;54.324;18.558;2023-03-05T03:42:16;-1.10;99.90
42913;DHT22;50720;54.324;18.558;2023-03-05T03:44:47;-1.10;99.90
42913;DHT22;50720;54.324;18.558;2023-03-05T03:47:17;-1.10;99.90
42913;DHT22;50720;54.324;18.558;2023-03-05T03:49:47;-1.10;99.90
42913;DHT22;50720;54.324;18.558;2023-03-05T03:52:18;-1.30;99.90
42913;DHT22;50720;54.324;18.558;2023-03-05T03:54:50;-1.30;99.90
42913;DHT22;50720;54.324;18.558;2023-03-05T03:57:22;-1.30;99.90
42913;DHT22;50720;54.324;18.558;2023-03-05T03:59:52;-1.30;99.90
42913;DHT22;50720;54.324;18.558;2023-03-05T04:02:22;-1.30;99.90
42913;DHT22;50720;54.324;18.558;2023-03-05T04:04:52;-1.40;99.90
42913;DHT22;50720;54.324;18.558;2023-03-05T04:07:23;-1.50;99.90
42913;DHT22;50720;54.324;18.558;2023-03-05T04:09:53;-1.50;99.90
42913;DHT22;50720;54.324;18.558;2023-03-05T04:12:22;-1.60;99.90
42913;DHT22;50720;54.324;18.558;2023-03-05T04:14:52;-1.50;99.90
42913;DHT22;50720;54.324;18.558;2023-03-05T04:17:22;-1.60;99.90
42913;DHT22;50720;54.324;18.558;2023-03-05T04:19:51;-1.60;99.90
42913;DHT22;50720;54.324;18.558;2023-03-05T04:22:22;-1.70;99.90
42913;DHT22;50720;54.324;18.558;2023-03-05T04:24:52;-1.70;99.90
42913;DHT22;50720;54.324;18.558;2023-03-05T04:27:21;-1.80;99.90
42913;DHT22;50720;54.324;18.558;2023-03-05T04:29:51;-1.80;99.90
42913;DHT22;50720;54.324;18.558;2023-03-05T04:32:21;-1.90;99.90
42913;DHT22;50720;54.324;18.558;2023-03-05T04:34:56;-1.90;99.90
42913;DHT22;50720;54.324;18.558;2023-03-05T04:37:28;-1.90;99.90
42913;DHT22;50720;54.324;18.558;2023-03-05T04:39:57;-1.90;99.90
42913;DHT22;50720;54.324;18.558;2023-03-05T04:42:27;-2.00;99.90
42913;DHT22;50720;54.324;18.558;2023-03-05T04:44:56;-2.00;99.90
42913;DHT22;50720;54.324;18.558;2023-03-05T04:47:26;-2.10;99.90
42913;DHT22;50720;54.324;18.558;2023-03-05T04:49:55;-2.10;99.90
42913;DHT22;50720;54.324;18.558;2023-03-05T04:52:27;-2.10;99.90
42913;DHT22;50720;54.324;18.558;2023-03-05T04:54:57;-2.10;99.90
42913;DHT22;50720;54.324;18.558;2023-03-05T04:57:27;-2.10;99.90
42913;DHT22;50720;54.324;18.558;2023-03-05T04:59:57;-2.10;99.90
42913;DHT22;50720;54.324;18.558;2023-03-05T05:02:27;-2.10;99.90
42913;DHT22;50720;54.324;18.558;2023-03-05T05:04:57;-2.10;99.90
42913;DHT22;50720;54.324;18.558;2023-03-05T05:07:28;-2.20;99.90
42913;DHT22;50720;54.324;18.558;2023-03-05T05:09:59;-2.10;99.90
42913;DHT22;50720;54.324;18.558;2023-03-05T05:12:29;-2.10;99.90
42913;DHT22;50720;54.324;18.558;2023-03-05T05:14:58;-2.20;99.90
42913;DHT22;50720;54.324;18.558;2023-03-05T05:17:29;-2.20;99.90
42913;DHT22;50720;54.324;18.558;2023-03-05T05:20:00;-2.20;99.90
42913;DHT22;50720;54.324;18.558;2023-03-05T05:22:34;-2.20;99.90
42913;DHT22;50720;54.324;18.558;2023-03-05T05:25:04;-2.20;99.90
42913;DHT22;50720;54.324;18.558;2023-03-05T05:27:34;-2.20;99.90
42913;DHT22;50720;54.324;18.558;2023-03-05T05:30:04;-2.20;99.90
42913;DHT22;50720;54.324;18.558;2023-03-05T05:32:34;-2.20;99.90
42913;DHT22;50720;54.324;18.558;2023-03-05T05:35:05;-2.20;99.90
42913;DHT22;50720;54.324;18.558;2023-03-05T05:37:37;-2.20;99.90
42913;DHT22;50720;54.324;18.558;2023-03-05T05:40:10;-2.20;99.90
42913;DHT22;50720;54.324;18.558;2023-03-05T05:42:40;-2.20;99.90
42913;DHT22;50720;54.324;18.558;2023-03-05T05:45:11;-2.20;99.90
42913;DHT22;50720;54.324;18.558;2023-03-05T05:47:41;-2.20;99.90
42913;DHT22;50720;54.324;18.558;2023-03-05T05:50:11;-2.10;99.90
42913;DHT22;50720;54.324;18.558;2023-03-05T05:52:43;-2.10;99.90
42913;DHT22;50720;54.324;18.558;2023-03-05T05:55:12;-2.10;99.90
42913;DHT22;50720;54.324;18.558;2023-03-05T05:57:42;-2.10;99.90
42913;DHT22;50720;54.324;18.558;2023-03-05T06:00:13;-2.00;99.90
42913;DHT22;50720;54.324;18.558;2023-03-05T06:02:43;-2.00;99.90
42913;DHT22;50720;54.324;18.558;2023-03-05T06:05:14;-1.90;99.90
42913;DHT22;50720;54.324;18.558;2023-03-05T06:07:45;-1.90;99.90
42913;DHT22;50720;54.324;18.558;2023-03-05T06:10:15;-1.80;99.90
42913;DHT22;50720;54.324;18.558;2023-03-05T06:12:44;-1.80;99.90
42913;DHT22;50720;54.324;18.558;2023-03-05T06:15:14;-1.70;99.90
42913;DHT22;50720;54.324;18.558;2023-03-05T06:17:44;-1.70;99.90
42913;DHT22;50720;54.324;18.558;2023-03-05T06:22:45;-1.50;99.90
42913;DHT22;50720;54.324;18.558;2023-03-05T06:25:15;-1.50;99.90
42913;DHT22;50720;54.324;18.558;2023-03-05T06:27:45;-1.40;99.90
42913;DHT22;50720;54.324;18.558;2023-03-05T06:30:15;-1.40;99.90
42913;DHT22;50720;54.324;18.558;2023-03-05T06:32:45;-1.30;99.90
42913;DHT22;50720;54.324;18.558;2023-03-05T06:35:15;-1.30;99.90
42913;DHT22;50720;54.324;18.558;2023-03-05T06:37:46;-1.20;99.90
42913;DHT22;50720;54.324;18.558;2023-03-05T06:40:16;-1.10;99.90
42913;DHT22;50720;54.324;18.558;2023-03-05T06:42:46;-1.10;99.90
42913;DHT22;50720;54.324;18.558;2023-03-05T06:45:16;-1.00;99.90
42913;DHT22;50720;54.324;18.558;2023-03-05T06:47:46;-1.00;99.90
42913;DHT22;50720;54.324;18.558;2023-03-05T06:50:15;-0.90;99.90
42913;DHT22;50720;54.324;18.558;2023-03-05T06:52:48;-0.90;99.90
42913;DHT22;50720;54.324;18.558;2023-03-05T06:55:17;-0.80;99.90
42913;DHT22;50720;54.324;18.558;2023-03-05T06:57:47;-0.70;99.90
42913;DHT22;50720;54.324;18.558;2023-03-05T07:00:17;-0.70;99.90
42913;DHT22;50720;54.324;18.558;2023-03-05T07:02:47;-0.60;99.90
42913;DHT22;50720;54.324;18.558;2023-03-05T07:05:17;-0.50;99.90
42913;DHT22;50720;54.324;18.558;2023-03-05T07:07:48;-0.50;99.90
42913;DHT22;50720;54.324;18.558;2023-03-05T07:10:18;-0.40;99.90
42913;DHT22;50720;54.324;18.558;2023-03-05T07:12:48;-0.40;99.90
42913;DHT22;50720;54.324;18.558;2023-03-05T07:15:17;-0.30;99.90
42913;DHT22;50720;54.324;18.558;2023-03-05T07:17:47;-0.20;99.90
42913;DHT22;50720;54.324;18.558;2023-03-05T07:20:17;-0.10;99.90
42913;DHT22;50720;54.324;18.558;2023-03-05T07:22:49;-0.10;99.90
42913;DHT22;50720;54.324;18.558;2023-03-05T07:25:18;0.10;99.90
42913;DHT22;50720;54.324;18.558;2023-03-05T07:27:48;0.20;99.90
42913;DHT22;50720;54.324;18.558;2023-03-05T07:30:18;0.20;99.90
42913;DHT22;50720;54.324;18.558;2023-03-05T07:32:48;0.30;99.90
42913;DHT22;50720;54.324;18.558;2023-03-05T07:35:18;0.40;99.90
42913;DHT22;50720;54.324;18.558;2023-03-05T07:37:49;0.50;99.90
42913;DHT22;50720;54.324;18.558;2023-03-05T07:40:19;0.50;99.90
42913;DHT22;50720;54.324;18.558;2023-03-05T07:42:49;0.50;99.90
42913;DHT22;50720;54.324;18.558;2023-03-05T07:45:18;0.60;99.90
42913;DHT22;50720;54.324;18.558;2023-03-05T07:47:48;0.60;99.90
42913;DHT22;50720;54.324;18.558;2023-03-05T07:50:19;0.70;99.90
42913;DHT22;50720;54.324;18.558;2023-03-05T07:52:50;0.80;99.90
42913;DHT22;50720;54.324;18.558;2023-03-05T07:55:19;0.90;99.90
42913;DHT22;50720;54.324;18.558;2023-03-05T07:57:49;0.90;99.90
42913;DHT22;50720;54.324;18.558;2023-03-05T08:00:20;1.00;99.90
42913;DHT22;50720;54.324;18.558;2023-03-05T08:02:50;1.10;99.90
42913;DHT22;50720;54.324;18.558;2023-03-05T08:05:19;1.20;99.90
42913;DHT22;50720;54.324;18.558;2023-03-05T08:07:51;1.30;99.90
42913;DHT22;50720;54.324;18.558;2023-03-05T08:10:20;1.40;99.90
42913;DHT22;50720;54.324;18.558;2023-03-05T08:12:50;1.40;99.90
42913;DHT22;50720;54.324;18.558;2023-03-05T08:15:20;1.60;99.90
42913;DHT22;50720;54.324;18.558;2023-03-05T08:17:50;1.70;99.90
42913;DHT22;50720;54.324;18.558;2023-03-05T08:20:19;1.70;99.90
42913;DHT22;50720;54.324;18.558;2023-03-05T08:22:51;1.60;99.90
42913;DHT22;50720;54.324;18.558;2023-03-05T08:25:21;1.70;99.90
42913;DHT22;50720;54.324;18.558;2023-03-05T08:27:51;1.70;99.90
42913;DHT22;50720;54.324;18.558;2023-03-05T08:30:20;1.80;99.90
42913;DHT22;50720;54.324;18.558;2023-03-05T08:32:54;1.70;99.90
42913;DHT22;50720;54.324;18.558;2023-03-05T08:35:24;1.70;99.90
42913;DHT22;50720;54.324;18.558;2023-03-05T08:37:55;1.60;99.90
42913;DHT22;50720;54.324;18.558;2023-03-05T08:40:24;1.70;99.90
42913;DHT22;50720;54.324;18.558;2023-03-05T08:42:54;1.70;99.90
42913;DHT22;50720;54.324;18.558;2023-03-05T08:45:23;1.80;99.90
42913;DHT22;50720;54.324;18.558;2023-03-05T08:47:54;1.80;99.90
42913;DHT22;50720;54.324;18.558;2023-03-05T08:50:24;1.90;99.90
42913;DHT22;50720;54.324;18.558;2023-03-05T08:52:55;1.90;99.90
42913;DHT22;50720;54.324;18.558;2023-03-05T08:55:24;2.00;99.90
42913;DHT22;50720;54.324;18.558;2023-03-05T08:57:54;2.00;99.90
42913;DHT22;50720;54.324;18.558;2023-03-05T09:00:24;1.90;99.90
42913;DHT22;50720;54.324;18.558;2023-03-05T09:02:54;2.00;99.90
42913;DHT22;50720;54.324;18.558;2023-03-05T09:05:23;1.90;99.90
42913;DHT22;50720;54.324;18.558;2023-03-05T09:07:55;2.00;99.90
42913;DHT22;50720;54.324;18.558;2023-03-05T09:10:26;2.20;99.90
42913;DHT22;50720;54.324;18.558;2023-03-05T09:12:57;2.30;99.90
42913;DHT22;50720;54.324;18.558;2023-03-05T09:15:26;2.30;99.90
42913;DHT22;50720;54.324;18.558;2023-03-05T09:17:56;2.40;99.90
42913;DHT22;50720;54.324;18.558;2023-03-05T09:20:26;2.40;99.90
42913;DHT22;50720;54.324;18.558;2023-03-05T09:22:57;2.40;99.90
42913;DHT22;50720;54.324;18.558;2023-03-05T09:25:27;2.40;99.90
42913;DHT22;50720;54.324;18.558;2023-03-05T09:27:57;2.10;99.90
42913;DHT22;50720;54.324;18.558;2023-03-05T09:30:26;2.10;99.90
42913;DHT22;50720;54.324;18.558;2023-03-05T09:32:56;2.10;99.90
42913;DHT22;50720;54.324;18.558;2023-03-05T09:35:26;2.30;99.90
42913;DHT22;50720;54.324;18.558;2023-03-05T09:37:57;2.50;99.90
42913;DHT22;50720;54.324;18.558;2023-03-05T09:40:30;2.60;99.90
42913;DHT22;50720;54.324;18.558;2023-03-05T09:43:12;2.80;99.90
42913;DHT22;50720;54.324;18.558;2023-03-05T09:45:46;2.70;99.90
42913;DHT22;50720;54.324;18.558;2023-03-05T09:48:36;2.70;99.90
42913;DHT22;50720;54.324;18.558;2023-03-05T09:51:11;2.60;99.90
42913;DHT22;50720;54.324;18.558;2023-03-05T09:53:47;2.30;99.60
42913;DHT22;50720;54.324;18.558;2023-03-05T09:56:20;2.40;99.90
42913;DHT22;50720;54.324;18.558;2023-03-05T09:58:52;2.50;99.90
42913;DHT22;50720;54.324;18.558;2023-03-05T10:01:28;2.50;99.90
42913;DHT22;50720;54.324;18.558;2023-03-05T10:04:04;2.60;99.90
42913;DHT22;50720;54.324;18.558;2023-03-05T10:06:38;2.60;99.20
42913;DHT22;50720;54.324;18.558;2023-03-05T10:09:16;2.70;99.90
42913;DHT22;50720;54.324;18.558;2023-03-05T10:11:53;2.90;99.90
42913;DHT22;50720;54.324;18.558;2023-03-05T10:14:42;2.80;99.20
42913;DHT22;50720;54.324;18.558;2023-03-05T10:17:46;2.80;99.60
42913;DHT22;50720;54.324;18.558;2023-03-05T10:20:36;2.60;99.50
42913;DHT22;50720;54.324;18.558;2023-03-05T10:23:36;2.60;99.90
42913;DHT22;50720;54.324;18.558;2023-03-05T10:26:19;2.70;99.90
42913;DHT22;50720;54.324;18.558;2023-03-05T10:29:01;3.00;99.90
42913;DHT22;50720;54.324;18.558;2023-03-05T10:31:42;3.10;99.90
42913;DHT22;50720;54.324;18.558;2023-03-05T10:34:33;2.90;99.10
42913;DHT22;50720;54.324;18.558;2023-03-05T10:37:33;3.00;99.90
42913;DHT22;50720;54.324;18.558;2023-03-05T10:40:17;3.10;99.10
42913;DHT22;50720;54.324;18.558;2023-03-05T10:42:57;3.00;97.90
42913;DHT22;50720;54.324;18.558;2023-03-05T10:45:32;3.00;98.60
42913;DHT22;50720;54.324;18.558;2023-03-05T10:48:10;3.00;99.10
42913;DHT22;50720;54.324;18.558;2023-03-05T10:50:43;3.20;99.10
42913;DHT22;50720;54.324;18.558;2023-03-05T10:53:22;3.40;97.60
42913;DHT22;50720;54.324;18.558;2023-03-05T10:55:52;3.50;97.00
42913;DHT22;50720;54.324;18.558;2023-03-05T10:58:25;3.40;96.70
42913;DHT22;50720;54.324;18.558;2023-03-05T11:01:01;3.50;97.20
42913;DHT22;50720;54.324;18.558;2023-03-05T11:03:53;3.40;96.70
42913;DHT22;50720;54.324;18.558;2023-03-05T11:06:31;3.10;97.10
42913;DHT22;50720;54.324;18.558;2023-03-05T11:09:22;2.70;97.60
42913;DHT22;50720;54.324;18.558;2023-03-05T11:12:13;3.50;96.30
42913;DHT22;50720;54.324;18.558;2023-03-05T11:14:46;4.40;93.90
42913;DHT22;50720;54.324;18.558;2023-03-05T11:17:31;3.80;94.10
42913;DHT22;50720;54.324;18.558;2023-03-05T11:20:26;3.10;95.50
42913;DHT22;50720;54.324;18.558;2023-03-05T11:23:02;2.70;96.70
42913;DHT22;50720;54.324;18.558;2023-03-05T11:25:33;2.90;97.80
42913;DHT22;50720;54.324;18.558;2023-03-05T11:28:03;4.00;96.00
42913;DHT22;50720;54.324;18.558;2023-03-05T11:30:35;4.20;95.80
42913;DHT22;50720;54.324;18.558;2023-03-05T11:33:11;4.60;94.80
42913;DHT22;50720;54.324;18.558;2023-03-05T11:35:43;4.50;94.30
42913;DHT22;50720;54.324;18.558;2023-03-05T11:38:17;4.60;94.50
42913;DHT22;50720;54.324;18.558;2023-03-05T11:40:49;5.50;93.50
42913;DHT22;50720;54.324;18.558;2023-03-05T11:43:21;6.30;91.70
42913;DHT22;50720;54.324;18.558;2023-03-05T11:45:57;6.40;90.00
42913;DHT22;50720;54.324;18.558;2023-03-05T11:48:34;6.80;90.20
42913;DHT22;50720;54.324;18.558;2023-03-05T11:51:12;7.50;85.80
42913;DHT22;50720;54.324;18.558;2023-03-05T11:53:45;7.10;82.30
42913;DHT22;50720;54.324;18.558;2023-03-05T11:56:19;7.50;82.60
42913;DHT22;50720;54.324;18.558;2023-03-05T11:58:53;6.70;81.20
42913;DHT22;50720;54.324;18.558;2023-03-05T12:01:30;6.20;81.10
42913;DHT22;50720;54.324;18.558;2023-03-05T12:04:01;5.60;83.40
42913;DHT22;50720;54.324;18.558;2023-03-05T12:06:38;5.70;82.80
42913;DHT22;50720;54.324;18.558;2023-03-05T12:09:13;6.60;82.00
42913;DHT22;50720;54.324;18.558;2023-03-05T12:11:47;7.50;78.50
42913;DHT22;50720;54.324;18.558;2023-03-05T12:14:22;7.70;78.10
42913;DHT22;50720;54.324;18.558;2023-03-05T12:17:00;7.80;77.30
42913;DHT22;50720;54.324;18.558;2023-03-05T12:19:37;8.10;77.40
42913;DHT22;50720;54.324;18.558;2023-03-05T12:22:18;8.30;77.10
42913;DHT22;50720;54.324;18.558;2023-03-05T12:24:48;7.20;73.40
42913;DHT22;50720;54.324;18.558;2023-03-05T12:27:32;7.30;74.20
42913;DHT22;50720;54.324;18.558;2023-03-05T12:30:03;6.80;74.80
42913;DHT22;50720;54.324;18.558;2023-03-05T12:33:00;6.50;77.50
42913;DHT22;50720;54.324;18.558;2023-03-05T12:35:32;7.40;76.70
42913;DHT22;50720;54.324;18.558;2023-03-05T12:38:29;7.50;74.40
42913;DHT22;50720;54.324;18.558;2023-03-05T12:44:19;8.30;73.30
42913;DHT22;50720;54.324;18.558;2023-03-05T12:47:15;7.70;74.40
42913;DHT22;50720;54.324;18.558;2023-03-05T12:49:49;8.40;74.10
42913;DHT22;50720;54.324;18.558;2023-03-05T12:52:27;7.50;72.60
42913;DHT22;50720;54.324;18.558;2023-03-05T12:55:17;7.90;68.30
42913;DHT22;50720;54.324;18.558;2023-03-05T12:57:54;7.70;70.30
42913;DHT22;50720;54.324;18.558;2023-03-05T13:00:27;7.90;70.50
42913;DHT22;50720;54.324;18.558;2023-03-05T13:03:06;7.60;71.90
42913;DHT22;50720;54.324;18.558;2023-03-05T13:05:38;7.50;72.60
42913;DHT22;50720;54.324;18.558;2023-03-05T13:08:20;7.10;71.90
42913;DHT22;50720;54.324;18.558;2023-03-05T13:10:52;7.40;73.70
42913;DHT22;50720;54.324;18.558;2023-03-05T13:13:25;7.10;72.60
42913;DHT22;50720;54.324;18.558;2023-03-05T13:15:56;6.80;72.80
42913;DHT22;50720;54.324;18.558;2023-03-05T13:18:28;7.10;71.20
42913;DHT22;50720;54.324;18.558;2023-03-05T13:21:03;7.50;72.70
42913;DHT22;50720;54.324;18.558;2023-03-05T13:23:34;7.80;70.80
42913;DHT22;50720;54.324;18.558;2023-03-05T13:26:11;8.30;70.90
42913;DHT22;50720;54.324;18.558;2023-03-05T13:28:42;7.60;71.10
42913;DHT22;50720;54.324;18.558;2023-03-05T13:31:13;7.50;72.20
42913;DHT22;50720;54.324;18.558;2023-03-05T13:33:52;7.80;71.60
42913;DHT22;50720;54.324;18.558;2023-03-05T13:36:25;7.70;73.20
42913;DHT22;50720;54.324;18.558;2023-03-05T13:38:55;7.50;74.50
42913;DHT22;50720;54.324;18.558;2023-03-05T13:41:25;6.80;74.90
42913;DHT22;50720;54.324;18.558;2023-03-05T13:43:56;6.10;76.10
42913;DHT22;50720;54.324;18.558;2023-03-05T13:46:30;5.80;79.00
42913;DHT22;50720;54.324;18.558;2023-03-05T13:49:15;6.40;78.70
42913;DHT22;50720;54.324;18.558;2023-03-05T13:51:48;7.20;78.30
42913;DHT22;50720;54.324;18.558;2023-03-05T13:54:19;7.50;77.60
42913;DHT22;50720;54.324;18.558;2023-03-05T13:56:54;7.90;76.30
42913;DHT22;50720;54.324;18.558;2023-03-05T13:59:27;7.80;72.40
42913;DHT22;50720;54.324;18.558;2023-03-05T14:01:58;7.70;69.50
42913;DHT22;50720;54.324;18.558;2023-03-05T14:04:33;7.20;68.80
42913;DHT22;50720;54.324;18.558;2023-03-05T14:07:07;6.50;69.70
42913;DHT22;50720;54.324;18.558;2023-03-05T14:09:51;6.60;71.10
42913;DHT22;50720;54.324;18.558;2023-03-05T14:12:26;6.40;72.20
42913;DHT22;50720;54.324;18.558;2023-03-05T14:14:57;6.80;72.60
42913;DHT22;50720;54.324;18.558;2023-03-05T14:17:37;7.30;72.50
42913;DHT22;50720;54.324;18.558;2023-03-05T14:22:56;8.10;71.90
42913;DHT22;50720;54.324;18.558;2023-03-05T14:25:32;8.10;70.20
42913;DHT22;50720;54.324;18.558;2023-03-05T14:28:05;7.50;70.30
42913;DHT22;50720;54.324;18.558;2023-03-05T14:30:34;7.90;71.20
42913;DHT22;50720;54.324;18.558;2023-03-05T14:33:04;7.40;69.90
42913;DHT22;50720;54.324;18.558;2023-03-05T14:35:34;7.80;70.60
42913;DHT22;50720;54.324;18.558;2023-03-05T14:38:32;7.50;69.50
42913;DHT22;50720;54.324;18.558;2023-03-05T14:41:20;7.70;70.40
42913;DHT22;50720;54.324;18.558;2023-03-05T14:43:51;7.80;71.40
42913;DHT22;50720;54.324;18.558;2023-03-05T14:46:21;8.00;71.00
42913;DHT22;50720;54.324;18.558;2023-03-05T14:48:50;7.50;70.60
42913;DHT22;50720;54.324;18.558;2023-03-05T14:51:21;7.60;67.90
42913;DHT22;50720;54.324;18.558;2023-03-05T14:53:53;7.30;66.40
42913;DHT22;50720;54.324;18.558;2023-03-05T14:56:24;6.60;65.60
42913;DHT22;50720;54.324;18.558;2023-03-05T14:58:55;6.70;65.40
42913;DHT22;50720;54.324;18.558;2023-03-05T15:01:24;6.50;65.20
42913;DHT22;50720;54.324;18.558;2023-03-05T15:03:54;6.90;65.60
42913;DHT22;50720;54.324;18.558;2023-03-05T15:06:27;6.30;66.60
42913;DHT22;50720;54.324;18.558;2023-03-05T15:09:02;6.00;67.40
42913;DHT22;50720;54.324;18.558;2023-03-05T15:11:32;6.00;67.40
42913;DHT22;50720;54.324;18.558;2023-03-05T15:14:02;5.30;67.10
42913;DHT22;50720;54.324;18.558;2023-03-05T15:16:32;4.70;68.30
42913;DHT22;50720;54.324;18.558;2023-03-05T15:19:02;4.20;69.80
42913;DHT22;50720;54.324;18.558;2023-03-05T15:21:32;3.70;71.10
42913;DHT22;50720;54.324;18.558;2023-03-05T15:24:06;3.40;72.60
42913;DHT22;50720;54.324;18.558;2023-03-05T15:26:38;3.30;74.20
42913;DHT22;50720;54.324;18.558;2023-03-05T15:29:08;3.10;75.90
42913;DHT22;50720;54.324;18.558;2023-03-05T15:31:37;2.90;77.60
42913;DHT22;50720;54.324;18.558;2023-03-05T15:34:07;2.90;78.80
42913;DHT22;50720;54.324;18.558;2023-03-05T15:36:37;2.70;78.60
42913;DHT22;50720;54.324;18.558;2023-03-05T15:39:08;2.60;79.40
42913;DHT22;50720;54.324;18.558;2023-03-05T15:41:38;2.60;83.50
42913;DHT22;50720;54.324;18.558;2023-03-05T15:44:07;2.50;82.80
42913;DHT22;50720;54.324;18.558;2023-03-05T15:46:37;2.40;83.90
42913;DHT22;50720;54.324;18.558;2023-03-05T15:49:17;2.30;85.40
42913;DHT22;50720;54.324;18.558;2023-03-05T15:51:46;2.20;87.40
42913;DHT22;50720;54.324;18.558;2023-03-05T15:54:17;2.20;90.20
42913;DHT22;50720;54.324;18.558;2023-03-05T15:56:47;2.10;90.70
42913;DHT22;50720;54.324;18.558;2023-03-05T15:59:17;2.10;91.70
42913;DHT22;50720;54.324;18.558;2023-03-05T16:01:49;2.00;92.40
42913;DHT22;50720;54.324;18.558;2023-03-05T16:04:19;2.00;93.10
42913;DHT22;50720;54.324;18.558;2023-03-05T16:06:50;2.00;93.30